createdAt,value
2022-10-01T00:02:00.281Z,18.28
2022-10-01T00:04:28.465Z,18.28
2022-10-01T00:06:59.315Z,18.27
2022-10-01T00:09:27.382Z,18.24
2022-10-01T00:11:56.669Z,18.26
2022-10-01T00:14:24.662Z,18.20
2022-10-01T00:16:53.046Z,18.26
2022-10-01T00:19:21.455Z,18.25
2022-10-01T00:21:49.518Z,18.22
2022-10-01T00:24:18.886Z,18.21
2022-10-01T00:26:48.149Z,18.21
2022-10-01T00:29:16.694Z,18.17
2022-10-01T00:31:44.855Z,18.13
2022-10-01T00:34:15.220Z,18.07
2022-10-01T00:36:43.440Z,17.97
2022-10-01T00:39:13.070Z,17.94
2022-10-01T00:41:43.417Z,17.78
2022-10-01T00:44:33.436Z,17.70
2022-10-01T00:47:07.162Z,17.68
2022-10-01T00:49:38.245Z,17.63
2022-10-01T00:52:10.658Z,17.60
2022-10-01T00:54:43.606Z,17.59
2022-10-01T00:57:16.127Z,17.54
2022-10-01T00:59:44.478Z,17.53
2022-10-01T01:02:12.671Z,17.50
2022-10-01T01:04:41.399Z,17.48
2022-10-01T01:07:10.755Z,17.35
2022-10-01T01:09:43.378Z,17.28
2022-10-01T01:12:27.919Z,17.25
2022-10-01T01:15:09.946Z,17.28
2022-10-01T01:17:43.561Z,17.21
2022-10-01T01:20:42.866Z,17.19
2022-10-01T01:23:37.895Z,17.10
2022-10-01T01:26:17.621Z,17.13
2022-10-01T01:28:50.869Z,17.07
2022-10-01T01:31:23.312Z,17.01
2022-10-01T01:33:55.202Z,16.99
2022-10-01T01:36:28.690Z,16.90
2022-10-01T01:39:00.889Z,16.89
2022-10-01T01:41:31.198Z,16.84
2022-10-01T01:44:03.726Z,16.74
2022-10-01T01:46:36.022Z,16.76
2022-10-01T01:49:05.912Z,16.77
2022-10-01T01:51:39.675Z,16.67
2022-10-01T01:54:07.961Z,16.63
2022-10-01T01:56:36.443Z,16.60
2022-10-01T01:59:08.492Z,16.54
2022-10-01T02:01:39.377Z,16.54
2022-10-01T02:04:16.085Z,16.51
2022-10-01T02:06:58.638Z,16.49
2022-10-01T02:09:32.091Z,16.45
2022-10-01T02:12:12.341Z,16.43
2022-10-01T02:14:49.146Z,16.39
2022-10-01T02:17:21.883Z,16.41
2022-10-01T02:19:58.303Z,16.43
2022-10-01T02:22:37.053Z,16.41
2022-10-01T02:25:07.695Z,16.39
2022-10-01T02:27:41.206Z,16.39
2022-10-01T02:30:13.249Z,16.39
2022-10-01T02:32:44.610Z,16.39
2022-10-01T02:35:15.545Z,16.37
2022-10-01T02:37:45.666Z,16.37
2022-10-01T02:40:17.125Z,16.34
2022-10-01T02:42:48.177Z,16.31
2022-10-01T02:45:22.905Z,16.28
2022-10-01T02:47:55.740Z,16.29
2022-10-01T02:50:27.791Z,16.22
2022-10-01T02:53:02.578Z,16.24
2022-10-01T02:55:34.205Z,16.21
2022-10-01T02:58:01.693Z,16.17
2022-10-01T03:00:31.338Z,16.18
2022-10-01T03:02:59.514Z,16.16
2022-10-01T03:05:28.182Z,16.18
2022-10-01T03:07:56.165Z,16.08
2022-10-01T03:10:24.265Z,16.12
2022-10-01T03:12:52.313Z,16.14
2022-10-01T03:15:21.027Z,16.16
2022-10-01T03:17:53.487Z,16.19
2022-10-01T03:20:22.386Z,16.12
2022-10-01T03:22:50.753Z,16.16
2022-10-01T03:25:18.775Z,16.08
2022-10-01T03:27:47.536Z,16.14
2022-10-01T03:30:15.562Z,16.18
2022-10-01T03:32:43.549Z,16.14
2022-10-01T03:35:12.953Z,16.17
2022-10-01T03:37:40.956Z,16.12
2022-10-01T03:40:09.846Z,16.16
2022-10-01T03:42:37.881Z,16.20
2022-10-01T03:45:06.223Z,16.18
2022-10-01T03:47:34.632Z,16.19
2022-10-01T03:50:02.658Z,16.20
2022-10-01T03:52:32.031Z,16.17
2022-10-01T03:55:00.710Z,16.22
2022-10-01T03:57:28.722Z,16.27
2022-10-01T03:59:56.743Z,16.30
2022-10-01T04:02:25.527Z,16.27
2022-10-01T04:04:53.598Z,16.26
2022-10-01T04:07:21.974Z,16.21
2022-10-01T04:09:51.844Z,16.21
2022-10-01T04:12:19.962Z,16.17
2022-10-01T04:14:47.965Z,16.19
2022-10-01T04:17:16.023Z,16.17
2022-10-01T04:19:44.135Z,16.17
2022-10-01T04:22:12.149Z,16.20
2022-10-01T04:24:40.171Z,16.17
2022-10-01T04:27:10.177Z,16.19
2022-10-01T04:29:40.314Z,16.22
2022-10-01T04:32:08.578Z,16.26
2022-10-01T04:34:54.457Z,16.25
2022-10-01T04:37:23.542Z,16.26
2022-10-01T04:39:52.037Z,16.27
2022-10-01T04:42:21.742Z,16.30
2022-10-01T04:44:50.118Z,16.25
2022-10-01T04:47:19.786Z,16.28
2022-10-01T04:50:02.303Z,16.29
2022-10-01T04:52:48.394Z,16.28
2022-10-01T04:55:19.455Z,16.24
2022-10-01T04:57:49.494Z,16.26
2022-10-01T05:00:19.650Z,16.22
2022-10-01T05:02:49.173Z,16.19
2022-10-01T05:05:18.502Z,16.16
2022-10-01T05:07:46.598Z,16.18
2022-10-01T05:10:17.098Z,16.32
2022-10-01T05:12:45.630Z,16.20
2022-10-01T05:15:16.226Z,16.26
2022-10-01T05:17:44.293Z,16.24
2022-10-01T05:20:17.994Z,16.30
2022-10-01T05:22:46.947Z,16.34
2022-10-01T05:25:15.610Z,16.39
2022-10-01T05:27:43.813Z,16.36
2022-10-01T05:30:20.124Z,16.45
2022-10-01T05:32:56.490Z,16.43
2022-10-01T05:35:25.345Z,16.49
2022-10-01T05:37:58.052Z,16.32
2022-10-01T05:40:27.455Z,16.37
2022-10-01T05:42:56.503Z,16.40
2022-10-01T05:45:26.366Z,16.50
2022-10-01T05:47:58.697Z,16.48
2022-10-01T05:50:27.179Z,16.56
2022-10-01T05:52:55.923Z,16.52
2022-10-01T05:55:25.170Z,16.59
2022-10-01T05:57:57.842Z,16.62
2022-10-01T06:00:29.364Z,16.64
2022-10-01T06:02:58.333Z,16.67
2022-10-01T06:05:27.381Z,16.67
2022-10-01T06:07:55.560Z,16.59
2022-10-01T06:10:24.621Z,16.66
2022-10-01T06:12:53.061Z,16.81
2022-10-01T06:15:21.166Z,16.87
2022-10-01T06:17:50.574Z,16.81
2022-10-01T06:20:19.449Z,16.79
2022-10-01T06:22:55.908Z,16.84
2022-10-01T06:25:24.235Z,16.89
2022-10-01T06:27:58.161Z,16.91
2022-10-01T06:30:27.538Z,16.99
2022-10-01T06:33:02.039Z,17.04
2022-10-01T06:35:30.257Z,17.11
2022-10-01T06:37:58.300Z,17.15
2022-10-01T06:40:26.519Z,17.16
2022-10-01T06:42:58.406Z,17.18
2022-10-01T06:45:26.697Z,17.15
2022-10-01T06:47:57.030Z,17.18
2022-10-01T06:50:30.451Z,17.26
2022-10-01T06:53:06.688Z,17.28
2022-10-01T06:55:43.295Z,17.35
2022-10-01T06:58:14.575Z,17.40
2022-10-01T07:00:43.920Z,17.40
2022-10-01T07:03:16.462Z,17.50
2022-10-01T07:05:46.014Z,17.53
2022-10-01T07:08:14.166Z,17.66
2022-10-01T07:10:44.096Z,17.73
2022-10-01T07:13:14.172Z,17.70
2022-10-01T07:15:42.270Z,17.80
2022-10-01T07:18:12.173Z,17.85
2022-10-01T07:20:42.176Z,17.94
2022-10-01T07:23:13.523Z,17.98
2022-10-01T07:25:42.515Z,18.03
2022-10-01T07:28:16.632Z,18.05
2022-10-01T07:30:48.354Z,18.09
2022-10-01T07:33:19.468Z,18.19
2022-10-01T07:35:49.352Z,18.28
2022-10-01T07:38:17.355Z,18.34
2022-10-01T07:40:45.430Z,18.41
2022-10-01T07:43:14.668Z,18.44
2022-10-01T07:45:43.010Z,18.53
2022-10-01T07:48:11.126Z,18.58
2022-10-01T07:50:39.230Z,18.73
2022-10-01T07:53:08.619Z,18.89
2022-10-01T07:55:36.675Z,18.99
2022-10-01T07:58:05.233Z,19.01
2022-10-01T08:00:36.257Z,19.29
2022-10-01T08:03:04.677Z,19.61
2022-10-01T08:05:34.379Z,19.99
2022-10-01T08:08:03.838Z,20.21
2022-10-01T08:10:35.968Z,20.33
2022-10-01T08:13:08.722Z,20.48
2022-10-01T08:15:37.310Z,20.37
2022-10-01T08:18:05.790Z,20.17
2022-10-01T08:20:35.514Z,20.18
2022-10-01T08:23:04.606Z,20.30
2022-10-01T08:25:34.445Z,20.21
2022-10-01T08:28:03.003Z,20.17
2022-10-01T08:30:31.453Z,20.21
2022-10-01T08:33:01.150Z,20.53
2022-10-01T08:35:31.389Z,20.74
2022-10-01T08:38:02.768Z,20.94
2022-10-01T08:40:31.432Z,21.14
2022-10-01T08:43:06.249Z,21.16
2022-10-01T08:45:41.689Z,21.08
2022-10-01T08:48:17.034Z,21.28
2022-10-01T08:50:53.811Z,21.72
2022-10-01T08:53:30.038Z,22.25
2022-10-01T08:55:59.221Z,22.57
2022-10-01T08:58:33.725Z,22.84
2022-10-01T09:01:01.915Z,22.95
2022-10-01T09:03:32.565Z,23.09
2022-10-01T09:06:13.109Z,23.13
2022-10-01T09:08:52.293Z,23.11
2022-10-01T09:11:34.208Z,23.21
2022-10-01T09:14:22.464Z,23.45
2022-10-01T09:17:01.658Z,23.79
2022-10-01T09:19:54.475Z,24.06
2022-10-01T09:22:30.826Z,24.47
2022-10-01T09:25:07.116Z,24.82
2022-10-01T09:27:35.566Z,24.74
2022-10-01T09:30:08.339Z,24.84
2022-10-01T09:32:43.011Z,25.00
2022-10-01T09:35:24.952Z,25.31
2022-10-01T09:37:58.289Z,25.73
2022-10-01T09:40:33.954Z,25.83
2022-10-01T09:43:02.350Z,25.77
2022-10-01T09:45:32.236Z,25.94
2022-10-01T09:48:06.395Z,25.96
2022-10-01T09:50:41.254Z,26.32
2022-10-01T09:53:17.755Z,26.41
2022-10-01T09:55:52.310Z,25.94
2022-10-01T09:58:24.284Z,25.89
2022-10-01T10:00:56.558Z,25.81
2022-10-01T10:03:26.337Z,26.05
2022-10-01T10:05:55.090Z,26.51
2022-10-01T10:08:29.035Z,26.89
2022-10-01T10:11:00.684Z,26.72
2022-10-01T10:13:35.266Z,26.30
2022-10-01T10:16:16.732Z,25.76
2022-10-01T10:18:52.107Z,25.33
2022-10-01T10:21:23.533Z,25.24
2022-10-01T10:23:53.483Z,25.12
2022-10-01T10:26:23.487Z,24.91
2022-10-01T10:28:51.486Z,25.13
2022-10-01T10:31:24.166Z,25.38
2022-10-01T10:33:57.924Z,25.74
2022-10-01T10:36:30.044Z,25.90
2022-10-01T10:38:59.999Z,26.40
2022-10-01T10:41:30.196Z,26.76
2022-10-01T10:44:03.600Z,27.28
2022-10-01T10:46:36.107Z,27.78
2022-10-01T10:49:08.933Z,27.97
2022-10-01T10:51:48.718Z,27.27
2022-10-01T10:54:21.919Z,26.47
2022-10-01T10:57:00.730Z,25.77
2022-10-01T10:59:33.143Z,25.24
2022-10-01T11:02:05.670Z,24.88
2022-10-01T11:04:42.693Z,24.43
2022-10-01T11:07:13.423Z,24.40
2022-10-01T11:10:21.534Z,24.03
2022-10-01T11:13:10.206Z,23.61
2022-10-01T11:15:52.779Z,23.01
2022-10-01T11:18:39.765Z,22.27
2022-10-01T11:21:40.390Z,21.73
2022-10-01T11:24:29.621Z,21.33
2022-10-01T11:27:04.722Z,20.87
2022-10-01T11:29:44.978Z,20.49
2022-10-01T11:32:23.346Z,20.12
2022-10-01T11:35:16.947Z,19.80
2022-10-01T11:37:57.402Z,19.68
2022-10-01T11:40:30.125Z,19.65
2022-10-01T11:43:03.969Z,19.63
2022-10-01T11:45:36.229Z,19.58
2022-10-01T11:48:08.769Z,19.60
2022-10-01T11:50:43.340Z,19.71
2022-10-01T11:53:16.458Z,19.80
2022-10-01T11:56:07.453Z,19.94
2022-10-01T11:58:55.098Z,20.57
2022-10-01T12:01:39.129Z,21.35
2022-10-01T12:04:18.463Z,21.76
2022-10-01T12:06:55.174Z,21.79
2022-10-01T12:09:29.863Z,21.67
2022-10-01T12:12:02.345Z,21.82
2022-10-01T12:14:34.966Z,21.89
2022-10-01T12:17:13.221Z,21.95
2022-10-01T12:19:46.431Z,22.40
2022-10-01T12:22:24.569Z,22.83
2022-10-01T12:24:53.746Z,23.23
2022-10-01T12:27:51.481Z,23.59
2022-10-01T12:30:22.108Z,23.66
2022-10-01T12:33:09.056Z,23.77
2022-10-01T12:35:57.142Z,23.69
2022-10-01T12:38:38.380Z,23.50
2022-10-01T12:41:19.342Z,23.45
2022-10-01T12:44:20.762Z,23.32
2022-10-01T12:47:00.233Z,23.37
2022-10-01T12:49:36.982Z,23.37
2022-10-01T12:52:15.628Z,23.28
2022-10-01T12:54:58.459Z,23.15
2022-10-01T12:57:37.909Z,23.17
2022-10-01T13:00:12.103Z,23.08
2022-10-01T13:02:57.943Z,23.09
2022-10-01T13:05:34.534Z,23.25
2022-10-01T13:08:29.741Z,23.40
2022-10-01T13:11:08.833Z,23.44
2022-10-01T13:13:38.591Z,23.54
2022-10-01T13:16:14.127Z,23.59
2022-10-01T13:18:54.417Z,23.53
2022-10-01T13:21:32.368Z,23.37
2022-10-01T13:24:05.814Z,23.08
2022-10-01T13:26:42.305Z,22.84
2022-10-01T13:29:26.020Z,22.67
2022-10-01T13:31:57.994Z,22.37
2022-10-01T13:34:36.138Z,22.04
2022-10-01T13:37:13.174Z,21.68
2022-10-01T13:39:42.250Z,21.28
2022-10-01T13:42:21.099Z,20.93
2022-10-01T13:44:56.431Z,20.85
2022-10-01T13:47:25.649Z,21.06
2022-10-01T13:49:56.969Z,21.20
2022-10-01T13:52:25.323Z,21.18
2022-10-01T13:54:55.505Z,21.06
2022-10-01T13:57:34.240Z,21.17
2022-10-01T14:00:07.782Z,21.20
2022-10-01T14:02:40.765Z,21.25
2022-10-01T14:05:32.091Z,21.22
2022-10-01T14:08:11.906Z,21.24
2022-10-01T14:11:09.322Z,21.18
2022-10-01T14:14:04.570Z,21.02
2022-10-01T14:16:37.610Z,20.92
2022-10-01T14:19:06.003Z,20.83
2022-10-01T14:21:44.801Z,20.73
2022-10-01T14:24:22.108Z,20.62
2022-10-01T14:26:54.617Z,20.57
2022-10-01T14:29:37.887Z,20.50
2022-10-01T14:32:20.945Z,20.37
2022-10-01T14:35:07.447Z,20.09
2022-10-01T14:37:39.063Z,19.81
2022-10-01T14:40:16.795Z,19.80
2022-10-01T14:42:44.938Z,20.06
2022-10-01T14:45:20.058Z,20.31
2022-10-01T14:47:49.764Z,20.36
2022-10-01T14:50:21.415Z,20.40
2022-10-01T14:52:51.575Z,20.48
2022-10-01T14:55:22.742Z,20.58
2022-10-01T14:57:53.698Z,20.75
2022-10-01T15:00:26.042Z,20.86
2022-10-01T15:03:03.050Z,20.96
2022-10-01T15:05:32.898Z,21.02
2022-10-01T15:08:10.984Z,20.96
2022-10-01T15:10:43.041Z,20.85
2022-10-01T15:13:18.575Z,20.84
2022-10-01T15:15:48.101Z,20.86
2022-10-01T15:18:18.161Z,20.77
2022-10-01T15:20:57.578Z,20.58
2022-10-01T15:23:27.549Z,20.43
2022-10-01T15:25:57.466Z,20.31
2022-10-01T15:28:31.917Z,20.24
2022-10-01T15:31:03.456Z,20.18
2022-10-01T15:33:33.409Z,20.18
2022-10-01T15:36:05.080Z,20.18
2022-10-01T15:38:34.339Z,20.15
2022-10-01T15:41:29.947Z,20.12
2022-10-01T15:43:53.215Z,20.11
2022-10-01T15:46:29.309Z,20.05
2022-10-01T15:49:18.521Z,20.05
2022-10-01T15:52:11.751Z,19.94
2022-10-01T15:54:41.627Z,19.87
2022-10-01T15:57:11.349Z,19.83
2022-10-01T15:59:41.849Z,19.81
2022-10-01T16:02:19.670Z,19.79
2022-10-01T16:04:48.494Z,19.80
2022-10-01T16:07:29.698Z,19.77
2022-10-01T16:09:59.054Z,19.75
2022-10-01T16:12:29.143Z,19.71
2022-10-01T16:15:01.264Z,19.68
2022-10-01T16:17:33.281Z,19.70
2022-10-01T16:20:21.750Z,19.58
2022-10-01T16:22:50.196Z,19.47
2022-10-01T16:25:33.869Z,19.38
2022-10-01T16:28:04.545Z,19.31
2022-10-01T16:30:34.411Z,19.30
2022-10-01T16:33:06.197Z,19.15
2022-10-01T16:35:36.100Z,19.09
2022-10-01T16:38:06.786Z,19.01
2022-10-01T16:40:40.313Z,18.93
2022-10-01T16:43:09.083Z,18.88
2022-10-01T16:45:40.410Z,18.84
2022-10-01T16:48:15.725Z,18.80
2022-10-01T16:50:46.081Z,18.83
2022-10-01T16:53:15.723Z,18.83
2022-10-01T16:55:44.731Z,18.82
2022-10-01T16:58:13.713Z,18.83
2022-10-01T17:00:42.002Z,18.81
2022-10-01T17:03:17.316Z,18.81
2022-10-01T17:05:45.701Z,18.78
2022-10-01T17:08:14.612Z,18.71
2022-10-01T17:10:45.954Z,18.66
2022-10-01T17:13:14.622Z,18.59
2022-10-01T17:15:51.832Z,18.55
2022-10-01T17:18:22.505Z,18.52
2022-10-01T17:20:51.294Z,18.50
2022-10-01T17:23:21.055Z,18.49
2022-10-01T17:25:49.453Z,18.44
2022-10-01T17:28:19.992Z,18.41
2022-10-01T17:30:49.884Z,18.40
2022-10-01T17:33:20.274Z,18.40
2022-10-01T17:35:54.553Z,18.42
2022-10-01T17:38:23.851Z,18.43
2022-10-01T17:40:56.452Z,18.43
2022-10-01T17:43:25.114Z,18.42
2022-10-01T17:45:57.372Z,18.39
2022-10-01T17:48:26.283Z,18.37
2022-10-01T17:51:04.011Z,18.35
2022-10-01T17:53:36.150Z,18.30
2022-10-01T17:56:09.090Z,18.27
2022-10-01T17:58:40.607Z,18.30
2022-10-01T18:01:21.219Z,18.35
2022-10-01T18:03:55.081Z,18.33
2022-10-01T18:06:39.773Z,18.14
2022-10-01T18:09:11.329Z,18.10
2022-10-01T18:16:03.184Z,17.98
2022-10-01T18:21:25.591Z,17.99
2022-10-01T18:24:04.139Z,17.99
2022-10-01T18:26:33.599Z,17.97
2022-10-01T18:29:02.227Z,17.94
2022-10-01T18:31:35.695Z,17.95
2022-10-01T18:34:07.112Z,17.99
2022-10-01T18:36:43.749Z,18.03
2022-10-01T18:39:18.794Z,18.09
2022-10-01T18:41:46.815Z,18.06
2022-10-01T18:44:20.288Z,18.11
2022-10-01T18:47:01.114Z,18.17
2022-10-01T18:49:53.565Z,18.13
2022-10-01T18:52:34.257Z,18.12
2022-10-01T18:55:25.339Z,18.13
2022-10-01T18:58:13.739Z,18.11
2022-10-01T19:00:53.262Z,18.25
2022-10-01T19:03:37.202Z,18.26
2022-10-01T19:06:25.251Z,18.18
2022-10-01T19:09:13.871Z,18.13
2022-10-01T19:11:52.152Z,18.06
2022-10-01T19:14:42.566Z,18.11
2022-10-01T19:17:21.886Z,18.37
2022-10-01T19:28:40.457Z,18.27
2022-10-01T19:31:18.775Z,18.44
2022-10-01T19:34:37.736Z,18.23
2022-10-01T19:37:13.805Z,18.14
2022-10-01T19:40:42.888Z,18.10
2022-10-01T19:44:02.017Z,18.03
2022-10-01T19:50:21.178Z,17.89
2022-10-01T19:52:57.335Z,17.87
2022-10-01T19:56:23.958Z,17.80
2022-10-01T19:59:11.672Z,17.78
2022-10-01T20:02:03.382Z,17.79
2022-10-01T20:08:55.679Z,17.66
2022-10-01T20:11:30.602Z,17.67
2022-10-01T20:14:45.711Z,17.61
2022-10-01T20:17:23.281Z,17.62
2022-10-01T20:19:59.277Z,17.66
2022-10-01T20:22:35.083Z,17.72
2022-10-01T20:25:11.767Z,17.68
2022-10-01T20:27:52.168Z,17.68
2022-10-01T20:30:24.030Z,17.67
2022-10-01T20:33:01.589Z,17.69
2022-10-01T20:35:39.996Z,17.79
2022-10-01T20:38:35.845Z,17.77
2022-10-01T20:41:13.074Z,17.83
2022-10-01T20:43:49.332Z,17.82
2022-10-01T20:46:22.651Z,17.79
2022-10-01T20:48:59.248Z,17.74
2022-10-01T20:51:37.152Z,17.70
2022-10-01T20:54:11.394Z,17.73
2022-10-01T20:56:44.983Z,17.73
2022-10-01T20:59:19.385Z,17.67
2022-10-01T21:01:55.226Z,17.65
2022-10-01T21:04:28.630Z,17.61
2022-10-01T21:07:02.432Z,17.56
2022-10-01T21:09:35.275Z,17.54
2022-10-01T21:12:08.357Z,17.40
2022-10-01T21:14:48.337Z,17.34
2022-10-01T21:17:34.424Z,17.31
2022-10-01T21:20:20.314Z,17.28
2022-10-01T21:23:05.478Z,17.26
2022-10-01T21:29:27.430Z,17.20
2022-10-01T21:32:09.226Z,17.20
2022-10-01T21:34:50.751Z,17.19
2022-10-01T21:37:28.551Z,17.15
2022-10-01T21:40:05.079Z,17.09
2022-10-01T21:43:11.536Z,17.18
2022-10-01T21:45:44.470Z,17.10
2022-10-01T21:48:26.251Z,17.03
2022-10-01T21:50:57.293Z,17.08
2022-10-01T21:53:48.413Z,17.08
2022-10-01T21:56:44.627Z,17.10
2022-10-01T21:59:31.010Z,17.13
2022-10-01T22:02:10.881Z,17.20
2022-10-01T22:04:52.131Z,17.24
2022-10-01T22:07:26.256Z,17.30
2022-10-01T22:10:33.533Z,17.28
2022-10-01T22:13:06.798Z,17.36
2022-10-01T22:15:40.926Z,17.46
2022-10-01T22:18:19.979Z,17.45
2022-10-01T22:20:48.775Z,17.46
2022-10-01T22:23:18.775Z,17.46
2022-10-01T22:25:52.548Z,17.45
2022-10-01T22:28:26.398Z,17.43
2022-10-01T22:30:56.673Z,17.36
2022-10-01T22:33:33.660Z,17.30
2022-10-01T22:36:09.025Z,17.25
2022-10-01T22:38:41.895Z,17.29
2022-10-01T22:41:14.334Z,17.34
2022-10-01T22:43:45.720Z,17.34
2022-10-01T22:46:40.285Z,17.35
2022-10-01T22:49:19.989Z,17.51
2022-10-01T22:51:57.575Z,17.43
2022-10-01T22:54:39.716Z,17.29
2022-10-01T22:57:24.378Z,17.25
2022-10-01T23:00:03.142Z,17.16
2022-10-01T23:02:37.073Z,17.25
2022-10-01T23:05:19.018Z,17.23
2022-10-01T23:07:57.063Z,17.24
2022-10-01T23:10:31.733Z,17.28
2022-10-01T23:13:13.734Z,17.31
2022-10-01T23:15:49.122Z,17.41
2022-10-01T23:18:29.639Z,17.44
2022-10-01T23:21:10.619Z,17.51
2022-10-01T23:23:39.385Z,17.51
2022-10-01T23:26:23.307Z,17.48
2022-10-01T23:29:03.359Z,17.53
2022-10-01T23:31:40.699Z,17.60
2022-10-01T23:34:24.688Z,17.48
2022-10-01T23:37:05.778Z,17.41
2022-10-01T23:39:48.333Z,17.36
2022-10-01T23:42:28.410Z,17.33
2022-10-01T23:45:05.964Z,17.23
2022-10-01T23:47:43.357Z,17.20
2022-10-01T23:50:22.766Z,17.20
2022-10-01T23:53:00.792Z,17.22
2022-10-01T23:55:56.122Z,17.25
2022-10-01T23:58:25.041Z,17.24
